Time;durP1;ratioP1;P1;durP2;ratioP2;P2;SDS_P1;SDS_P2;PMS_P1;PMS_P2;Temp;Humidity;BMP_temperature;BMP_pressure;BME280_temperature;BME280_humidity;BME280_pressure;Samples;Min_cycle;Max_cycle;Signal;HPM_P1;HPM_P2
2023/10/07 00:01:37;;;;;;;10.50;4.60;;;;;;;6.86;64.30;99701.80;107301;1258;72735;-38
2023/10/07 00:04:05;;;;;;;9.10;4.30;;;;;;;6.81;64.36;99693.73;107212;1257;60332;-38
2023/10/07 00:06:37;;;;;;;10.00;5.20;;;;;;;6.76;64.58;99685.73;107300;1257;60037;-38
2023/10/07 00:09:10;;;;;;;10.40;4.90;;;;;;;6.73;64.67;99684.56;107272;1257;72688;-38
2023/10/07 00:11:39;;;;;;;11.50;5.20;;;;;;;6.79;64.84;99672.69;107288;1257;67754;-38
2023/10/07 00:14:09;;;;;;;11.30;4.80;;;;;;;6.86;64.91;99669.20;107215;1257;72660;-38
2023/10/07 00:16:38;;;;;;;11.10;5.10;;;;;;;6.88;65.21;99669.11;107190;1257;60352;-38
2023/10/07 00:19:07;;;;;;;10.90;6.10;;;;;;;6.89;65.43;99667.31;107234;1257;60399;-38
2023/10/07 00:21:58;;;;;;;13.70;5.90;;;;;;;6.90;65.63;99662.14;107222;1257;73853;-38
2023/10/07 00:24:27;;;;;;;14.00;6.40;;;;;;;6.93;65.79;99660.30;107229;1257;67814;-38
2023/10/07 00:26:59;;;;;;;11.70;6.70;;;;;;;6.94;65.87;99656.02;107215;1257;72701;-38
2023/10/07 00:29:36;;;;;;;;;;;;;;;6.94;66.08;99654.42;107176;1262;60969;-38
2023/10/07 00:32:05;;;;;;;10.30;6.10;;;;;;;6.94;66.29;99649.96;107249;1257;60334;-38
2023/10/07 00:34:38;;;;;;;10.70;5.60;;;;;;;6.93;66.52;99642.20;107232;1257;73881;-38
2023/10/07 00:37:06;;;;;;;11.20;5.90;;;;;;;6.97;66.48;99636.67;107229;1261;67566;-38
2023/10/07 00:39:38;;;;;;;12.10;6.40;;;;;;;7.08;66.51;99636.91;107054;1257;72244;-38
2023/10/07 00:42:07;;;;;;;8.90;5.70;;;;;;;7.13;66.69;99632.62;107188;1257;60414;-38
2023/10/07 00:44:35;;;;;;;10.00;5.40;;;;;;;7.13;66.79;99630.52;107208;1257;60294;-38
2023/10/07 00:55:11;;;;;;;11.20;5.20;;;;;;;7.07;66.97;99608.45;106971;1257;60351;-38
2023/10/07 01:00:49;;;;;;;10.00;5.10;;;;;;;7.12;67.06;99597.55;107067;1257;73861;-38
2023/10/07 01:08:35;;;;;;;10.70;5.10;;;;;;;7.11;67.51;99588.96;107111;1257;60490;-38
2023/10/07 01:13:50;;;;;;;15.40;6.40;;;;;;;7.12;67.91;99575.91;107157;1257;73816;-38
2023/10/07 01:16:27;;;;;;;10.00;5.20;;;;;;;7.14;68.10;99572.42;107179;1257;67895;-38
2023/10/07 01:18:59;;;;;;;11.10;5.50;;;;;;;7.21;68.03;99567.53;107224;1261;72738;-38
2023/10/07 01:21:32;;;;;;;12.60;6.00;;;;;;;7.28;67.93;99562.86;107215;1258;60447;-38
2023/10/07 01:24:05;;;;;;;13.30;5.70;;;;;;;7.31;68.14;99558.55;107293;1257;60375;-38
2023/10/07 01:26:40;;;;;;;12.10;5.60;;;;;;;7.33;68.23;99552.21;107266;1257;73840;-38
2023/10/07 01:29:15;;;;;;;13.10;5.80;;;;;;;7.35;68.37;99543.19;107267;1261;67911;-38
2023/10/07 01:31:59;;;;;;;11.00;5.40;;;;;;;7.38;68.36;99534.96;107115;1260;72681;-38
2023/10/07 01:34:35;;;;;;;12.20;5.50;;;;;;;7.41;68.60;99527.60;107203;1257;60394;-38
2023/10/07 01:37:03;;;;;;;10.70;4.80;;;;;;;7.43;68.50;99518.51;107054;1258;60650;-38
2023/10/07 01:39:40;;;;;;;12.10;5.10;;;;;;;7.51;68.26;99508.05;107274;1260;72561;-38
2023/10/07 01:42:13;;;;;;;10.80;4.80;;;;;;;7.60;68.10;99499.56;107203;1257;67564;-38
2023/10/07 01:44:41;;;;;;;9.50;5.20;;;;;;;7.63;67.91;99490.10;107208;1258;72723;-38
2023/10/07 01:47:16;;;;;;;9.40;4.90;;;;;;;7.64;67.84;99484.06;107213;1258;60543;-38
2023/10/07 01:49:52;;;;;;;10.20;5.50;;;;;;;7.65;67.61;99475.60;107249;1257;60236;-38
2023/10/07 01:52:26;;;;;;;13.10;5.30;;;;;;;7.65;67.58;99466.81;107272;1257;73881;-38
2023/10/07 01:54:55;;;;;;;11.50;4.80;;;;;;;7.63;67.37;99464.77;107251;1257;68088;-38
2023/10/07 01:57:23;;;;;;;11.10;5.80;;;;;;;7.59;67.30;99456.91;107035;1263;72772;-38
2023/10/07 01:59:56;;;;;;;9.40;4.70;;;;;;;7.54;67.47;99458.21;107066;1260;60896;-38
2023/10/07 02:02:25;;;;;;;11.00;5.30;;;;;;;7.56;67.55;99466.51;107276;1263;60437;-38
2023/10/07 02:04:56;;;;;;;8.70;5.20;;;;;;;7.59;67.77;99476.56;107279;1257;73836;-38
2023/10/07 02:07:24;;;;;;;9.20;5.10;;;;;;;7.59;67.84;99480.98;107258;1257;67632;-38
2023/10/07 02:09:54;;;;;;;12.50;4.80;;;;;;;7.58;68.02;99478.83;107013;1257;71343;-38
2023/10/07 02:12:24;;;;;;;9.90;5.30;;;;;;;7.55;68.02;99472.66;107257;1258;60335;-38
2023/10/07 02:14:52;;;;;;;;;;;;;;;7.46;68.01;99460.88;107251;1258;61264;-38
2023/10/07 02:17:25;;;;;;;7.80;4.80;;;;;;;7.45;68.28;99461.47;107019;1263;73887;-38
2023/10/07 02:19:53;;;;;;;9.90;5.20;;;;;;;7.42;68.49;99457.45;107213;1258;67576;-38
2023/10/07 02:22:22;;;;;;;12.90;5.00;;;;;;;7.47;68.56;99444.64;107194;1260;71496;-38
2023/10/07 02:25:01;;;;;;;12.20;5.80;;;;;;;7.54;68.44;99437.09;107248;1257;60384;-38
2023/10/07 02:27:37;;;;;;;11.40;5.10;;;;;;;7.55;68.53;99419.30;107019;1257;60326;-38
2023/10/07 02:30:06;;;;;;;11.10;5.30;;;;;;;7.51;68.63;99418.70;107233;1258;72565;-38
2023/10/07 02:32:35;;;;;;;10.80;5.00;;;;;;;7.47;68.94;99419.29;107134;1257;66439;-38
2023/10/07 02:35:08;;;;;;;10.90;5.70;;;;;;;7.47;69.20;99419.83;107198;1257;72692;-38
2023/10/07 02:37:38;;;;;;;13.50;5.50;;;;;;;7.45;69.48;99422.84;107242;1258;60563;-38
2023/10/07 02:40:21;;;;;;;10.40;5.90;;;;;;;7.47;69.55;99418.83;107486;1254;60453;-38
2023/10/07 02:45:59;;;;;;;12.80;5.80;;;;;;;7.60;69.78;99399.04;104281;1292;600550;-36
2023/10/07 02:48:28;;;;;;;11.40;5.90;;;;;;;7.63;69.90;99390.27;106614;1269;60063;-37
2023/10/07 02:51:06;;;;;;;14.10;6.60;;;;;;;7.65;69.96;99385.72;106690;1267;59363;-37
2023/10/07 02:53:35;;;;;;;12.60;6.10;;;;;;;7.65;70.09;99376.16;106670;1267;70771;-37
2023/10/07 02:56:16;;;;;;;13.30;5.80;;;;;;;7.67;70.32;99369.83;106612;1266;67942;-37
2023/10/07 02:58:59;;;;;;;13.10;6.00;;;;;;;7.76;70.37;99361.76;106573;1264;185081;-38
2023/10/07 03:01:28;;;;;;;11.10;6.00;;;;;;;7.84;70.42;99361.61;106720;1269;60113;-38
2023/10/07 03:04:00;;;;;;;14.40;6.20;;;;;;;7.86;70.49;99349.50;106693;1264;60006;-37
2023/10/07 03:06:28;;;;;;;12.20;6.10;;;;;;;7.89;70.72;99347.10;106712;1263;72301;-38
2023/10/07 03:09:09;;;;;;;12.40;6.00;;;;;;;7.89;70.85;99339.00;106864;1260;68067;-37
2023/10/07 03:11:48;;;;;;;13.50;5.80;;;;;;;7.90;70.90;99332.16;106833;1260;72661;-37
2023/10/07 03:14:26;;;;;;;14.70;6.40;;;;;;;7.99;70.68;99331.66;106841;1262;60427;-38
2023/10/07 03:16:59;;;;;;;13.50;5.90;;;;;;;8.06;70.62;99330.63;106944;1260;60212;-38
2023/10/07 03:19:49;;;;;;;12.00;5.60;;;;;;;8.09;70.60;99319.66;106851;1260;73084;-37
2023/10/07 03:22:17;;;;;;;17.00;6.20;;;;;;;8.08;70.65;99310.63;106926;1260;67616;-38
2023/10/07 03:24:54;;;;;;;15.60;6.20;;;;;;;8.07;70.76;99302.14;106885;1263;70579;-37
2023/10/07 03:27:25;;;;;;;12.00;6.20;;;;;;;8.07;70.76;99297.56;106916;1260;61814;-37
2023/10/07 03:30:39;;;;;;;13.20;6.00;;;;;;;8.13;70.81;99286.92;106875;1260;59606;-37
2023/10/07 03:36:07;;;;;;;12.60;6.10;;;;;;;8.20;70.75;99280.96;106905;1260;67612;-38
2023/10/07 03:38:26;;;;;;;13.90;6.20;;;;;;;8.21;70.88;99276.37;106904;1260;72686;-38
2023/10/07 03:40:54;;;;;;;13.60;6.00;;;;;;;8.23;70.78;99273.78;106899;1259;59708;-38
2023/10/07 03:43:25;;;;;;;15.60;6.10;;;;;;;8.22;70.84;99266.05;106985;1263;58745;-38
2023/10/07 03:45:54;;;;;;;13.30;5.90;;;;;;;8.28;70.71;99261.09;106994;1265;70988;-38
2023/10/07 03:48:30;;;;;;;10.10;5.20;;;;;;;8.33;70.66;99258.77;106847;1260;67919;-38
2023/10/07 03:50:59;;;;;;;10.90;5.60;;;;;;;8.34;70.67;99257.10;106895;1260;73076;-37
2023/10/07 03:53:31;;;;;;;9.70;5.30;;;;;;;8.34;70.63;99249.23;106900;1260;59618;-37
2023/10/07 03:56:00;;;;;;;13.10;6.00;;;;;;;8.35;70.69;99245.48;106870;1260;60060;-37
2023/10/07 03:58:28;;;;;;;10.40;5.20;;;;;;;8.37;70.64;99247.94;106905;1260;73079;-38
2023/10/07 04:00:56;;;;;;;13.10;5.40;;;;;;;8.42;70.61;99242.59;106887;1260;67590;-38
2023/10/07 04:03:24;;;;;;;17.40;5.50;;;;;;;8.49;70.41;99229.86;106891;1266;71443;-38
2023/10/07 04:05:52;;;;;;;12.50;5.70;;;;;;;8.52;70.32;99216.81;106866;1262;59717;-38
2023/10/07 04:08:19;;;;;;;11.20;5.30;;;;;;;8.53;70.28;99209.74;106880;1260;59262;-38
2023/10/07 04:10:47;;;;;;;13.40;5.60;;;;;;;8.55;70.16;99203.84;106865;1260;73031;-38
2023/10/07 04:13:21;;;;;;;12.00;5.60;;;;;;;8.55;70.06;99196.84;106885;1260;67726;-38
2023/10/07 04:15:52;;;;;;;15.10;5.60;;;;;;;8.62;69.96;99189.13;106883;1266;72712;-38
2023/10/07 04:18:34;;;;;;;15.20;6.10;;;;;;;8.70;69.72;99188.30;106889;1261;60135;-38
2023/10/07 04:21:02;;;;;;;9.90;5.30;;;;;;;8.73;69.62;99181.95;107031;1260;60049;-38
2023/10/07 04:23:31;;;;;;;13.30;5.80;;;;;;;8.73;69.58;99178.80;106883;1260;73059;-38
2023/10/07 04:26:08;;;;;;;10.00;5.60;;;;;;;8.70;69.67;99167.38;106882;1260;65307;-38
2023/10/07 04:28:39;;;;;;;8.80;5.30;;;;;;;8.72;69.91;99167.35;106873;1261;71690;-38
2023/10/07 04:31:11;;;;;;;10.30;5.50;;;;;;;8.79;70.02;99162.27;107041;1263;61752;-38
2023/10/07 04:33:53;;;;;;;13.00;5.40;;;;;;;8.87;70.06;99154.23;106898;1260;60051;-38
2023/10/07 04:36:33;;;;;;;11.10;5.80;;;;;;;8.89;70.29;99150.04;106915;1260;73042;-38
2023/10/07 04:39:16;;;;;;;12.00;5.50;;;;;;;8.89;70.38;99147.96;106914;1260;67923;-38
2023/10/07 04:41:51;;;;;;;11.40;5.50;;;;;;;8.88;70.63;99139.45;106882;1262;72730;-38
2023/10/07 04:50:15;;;;;;;10.50;6.20;;;;;;;9.06;70.63;99122.36;106907;1260;73501;-38
2023/10/07 04:52:50;;;;;;;15.50;5.70;;;;;;;9.08;70.80;99115.85;106917;1260;67617;-38
2023/10/07 04:55:26;;;;;;;13.60;6.60;;;;;;;9.11;70.78;99109.34;106920;1263;72719;-38
2023/10/07 05:02:59;;;;;;;12.50;5.50;;;;;;;9.35;70.53;99101.00;106862;1260;73094;-38
2023/10/07 05:05:33;;;;;;;10.40;5.30;;;;;;;9.39;70.67;99102.39;106875;1260;67560;-38
2023/10/07 05:08:17;;;;;;;9.60;5.70;;;;;;;9.42;70.65;99101.77;107492;1254;70977;-38
2023/10/07 05:11:04;;;;;;;14.00;5.00;;;;;;;9.46;70.72;99095.26;107516;1254;59759;-38
2023/10/07 05:13:35;;;;;;;22.50;5.60;;;;;;;9.50;70.72;99088.85;107564;1254;60058;-38
2023/10/07 05:16:08;;;;;;;12.60;5.20;;;;;;;9.63;70.56;99078.72;107532;1254;73091;-38
2023/10/07 05:18:36;;;;;;;9.00;5.10;;;;;;;9.71;70.45;99065.64;107523;1254;67904;-38
2023/10/07 05:21:06;;;;;;;16.40;5.80;;;;;;;9.76;70.28;99057.05;107494;1254;71453;-38
2023/10/07 05:23:36;;;;;;;12.90;5.40;;;;;;;9.82;70.19;99051.21;107510;1254;59638;-38
2023/10/07 05:26:08;;;;;;;11.40;4.80;;;;;;;9.90;69.89;99045.23;107550;1254;60043;-38
2023/10/07 05:28:39;;;;;;;10.80;4.90;;;;;;;10.06;69.85;99033.04;107536;1253;73025;-38
2023/10/07 05:31:08;;;;;;;;;;;;;;;10.14;69.80;99034.24;107592;1254;67351;-38
2023/10/07 05:33:36;;;;;;;12.20;4.60;;;;;;;10.18;69.78;99036.80;107593;1254;72668;-38
2023/10/07 05:36:13;;;;;;;9.20;4.70;;;;;;;10.21;70.45;99022.91;107511;1254;60084;-38
2023/10/07 05:38:44;;;;;;;16.70;4.50;;;;;;;10.28;70.65;99007.38;107576;1255;60045;-38
2023/10/07 05:41:15;;;;;;;15.00;5.30;;;;;;;10.35;70.67;99006.17;107537;1252;72094;-37
2023/10/07 05:43:44;;;;;;;10.80;5.10;;;;;;;10.34;70.97;98999.73;107523;1254;68306;-38
2023/10/07 05:46:12;;;;;;;8.90;5.10;;;;;;;10.32;71.43;99003.40;107513;1254;73093;-37
2023/10/07 05:48:40;;;;;;;11.00;4.20;;;;;;;10.32;71.88;98994.97;107492;1259;60396;-38
2023/10/07 05:51:08;;;;;;;13.00;4.70;;;;;;;10.36;72.24;98983.02;107513;1254;60153;-38
2023/10/07 05:53:39;;;;;;;11.60;4.60;;;;;;;10.41;72.48;98974.64;107542;1254;71786;-38
2023/10/07 05:56:07;;;;;;;9.60;4.70;;;;;;;10.41;72.83;98975.11;107520;1252;68004;-39
2023/10/07 05:58:38;;;;;;;11.30;4.80;;;;;;;10.37;73.11;98966.79;107499;1254;72958;-38
2023/10/07 06:01:08;;;;;;;9.60;4.90;;;;;;;10.34;73.24;98958.55;107509;1254;61714;-38
2023/10/07 06:03:36;;;;;;;12.10;4.60;;;;;;;10.38;73.34;98958.36;107526;1254;59905;-38
2023/10/07 06:06:06;;;;;;;7.90;4.60;;;;;;;10.43;73.74;98955.40;107654;1252;73101;-38
2023/10/07 06:08:34;;;;;;;13.90;4.80;;;;;;;10.44;73.94;98956.04;107539;1253;68024;-39
2023/10/07 06:11:02;;;;;;;11.70;4.90;;;;;;;10.42;74.20;98957.09;107548;1253;72677;-38
2023/10/07 06:13:33;;;;;;;9.10;4.50;;;;;;;10.40;74.66;98952.65;107529;1254;61655;-38
2023/10/07 06:16:04;;;;;;;10.90;4.40;;;;;;;10.44;74.71;98950.30;107508;1254;59250;-38
2023/10/07 06:18:34;;;;;;;10.50;5.20;;;;;;;10.46;74.90;98947.39;107543;1252;71838;-38
2023/10/07 06:21:50;;;;;;;11.80;4.60;;;;;;;10.43;74.98;98947.34;107450;1253;67923;-38
2023/10/07 06:23:49;;;;;;;11.70;4.80;;;;;;;10.38;75.31;98942.56;107395;1254;73152;-38
2023/10/07 06:26:18;;;;;;;8.30;4.30;;;;;;;10.37;75.61;98941.55;107439;1253;60448;-38
2023/10/07 06:28:48;;;;;;;9.50;3.50;;;;;;;10.41;75.60;98935.95;107509;1252;60133;-38
2023/10/07 06:31:31;;;;;;;12.50;4.60;;;;;;;10.41;76.03;98937.95;107520;1254;73069;-38
2023/10/07 06:33:59;;;;;;;7.40;4.50;;;;;;;10.39;76.34;98934.14;107495;1254;67595;-38
2023/10/07 06:36:30;;;;;;;13.00;4.70;;;;;;;10.42;76.58;98932.85;107469;1255;72707;-38
2023/10/07 06:38:58;;;;;;;13.40;4.40;;;;;;;10.50;76.52;98932.64;107515;1258;59723;-38
2023/10/07 06:41:29;;;;;;;10.00;4.80;;;;;;;10.53;76.85;98930.66;107572;1252;59998;-39
2023/10/07 06:44:02;;;;;;;10.40;5.10;;;;;;;10.53;77.05;98932.30;107551;1254;73060;-38
2023/10/07 06:46:40;;;;;;;13.20;4.80;;;;;;;10.54;77.46;98934.79;107535;1257;67601;-38
2023/10/07 06:49:18;;;;;;;13.80;4.00;;;;;;;10.62;77.53;98934.04;107503;1252;72716;-38
2023/10/07 06:51:53;;;;;;;12.20;4.70;;;;;;;10.71;77.81;98926.39;107492;1258;60047;-38
2023/10/07 06:54:24;;;;;;;12.90;4.60;;;;;;;10.72;78.00;98931.98;107518;1254;60152;-38
2023/10/07 06:56:54;;;;;;;10.90;4.20;;;;;;;10.72;78.01;98924.08;107512;1257;72066;-38
2023/10/07 06:59:27;;;;;;;9.00;4.30;;;;;;;10.78;78.11;98919.80;107485;1254;67593;-38
2023/10/07 07:02:11;;;;;;;8.40;4.40;;;;;;;10.87;77.64;98912.85;107480;1253;72687;-38
2023/10/07 07:04:41;;;;;;;13.10;4.70;;;;;;;10.88;77.48;98898.39;107569;1259;60563;-38
2023/10/07 07:07:16;;;;;;;8.00;3.90;;;;;;;10.87;77.89;98884.41;107485;1252;59988;-38
2023/10/07 07:12:21;;;;;;;12.40;4.90;;;;;;;10.97;77.93;98881.33;107479;1258;67910;-38
2023/10/07 07:14:56;;;;;;;9.30;4.40;;;;;;;10.95;78.44;98876.35;107543;1254;73198;-38
2023/10/07 07:17:30;;;;;;;8.50;3.90;;;;;;;10.90;78.67;98883.12;107479;1254;60817;-38
2023/10/07 07:20:19;;;;;;;9.70;4.50;;;;;;;10.94;78.73;98866.43;107516;1254;59359;-38
2023/10/07 07:22:49;;;;;;;9.80;3.80;;;;;;;10.95;79.38;98867.98;107495;1252;73864;-38
2023/10/07 07:27:58;;;;;;;9.60;4.80;;;;;;;10.90;80.00;98861.27;107492;1254;72749;-38
2023/10/07 07:30:32;;;;;;;8.30;4.30;;;;;;;10.98;80.12;98856.77;107479;1254;61674;-38
2023/10/07 07:33:11;;;;;;;9.20;4.10;;;;;;;11.00;80.44;98850.36;107622;1252;59730;-38
2023/10/07 07:35:40;;;;;;;;;;;;;;;10.96;80.74;98854.59;107519;1253;74252;-38
2023/10/07 07:40:49;;;;;;;7.90;4.50;;;;;;;10.98;81.35;98845.70;107497;1254;71708;-38
2023/10/07 07:43:19;;;;;;;9.40;3.80;;;;;;;10.95;81.72;98827.69;107480;1252;60984;-38
2023/10/07 07:45:56;;;;;;;;;;;;;;;10.90;82.68;98824.70;107531;1253;60322;-38
2023/10/07 07:48:26;;;;;;;5.70;3.50;;;;;;;10.89;82.71;98832.67;107560;1253;73856;-38
2023/10/07 07:50:54;;;;;;;6.30;3.70;;;;;;;10.92;83.06;98819.30;107534;1254;68008;-38
2023/10/07 07:53:22;;;;;;;8.20;3.80;;;;;;;10.93;83.77;98816.60;107527;1254;72773;-39
2023/10/07 07:55:55;;;;;;;8.10;3.90;;;;;;;10.90;84.26;98810.27;107450;1256;60664;-38
2023/10/07 07:58:24;;;;;;;11.40;4.80;;;;;;;10.92;84.36;98806.20;107483;1254;60396;-38
2023/10/07 08:00:58;;;;;;;8.80;3.80;;;;;;;10.96;84.35;98791.98;107535;1253;73878;-38
2023/10/07 08:03:26;;;;;;;9.40;4.60;;;;;;;10.96;84.28;98800.26;107528;1253;66756;-38
2023/10/07 08:05:54;;;;;;;10.10;4.50;;;;;;;10.94;84.61;98790.56;107513;1254;72724;-38
2023/10/07 08:08:25;;;;;;;11.80;4.60;;;;;;;10.98;84.73;98779.43;107496;1254;60453;-38
2023/10/07 08:10:54;;;;;;;7.60;4.10;;;;;;;11.05;85.00;98776.54;107508;1254;61136;-39
2023/10/07 08:13:23;;;;;;;;;;;;;;;11.07;84.94;98766.88;107519;1259;73824;-38
2023/10/07 08:15:51;;;;;;;8.80;4.00;;;;;;;11.05;84.78;98770.73;107625;1254;65727;-38
2023/10/07 08:18:28;;;;;;;11.00;4.10;;;;;;;11.07;84.96;98762.77;107495;1253;72665;-38
2023/10/07 08:21:06;;;;;;;9.00;4.20;;;;;;;11.14;84.87;98757.63;107492;1258;61766;-38
2023/10/07 08:23:36;;;;;;;11.40;4.70;;;;;;;11.18;84.92;98761.84;107500;1254;60443;-39
2023/10/07 08:26:20;;;;;;;7.10;4.00;;;;;;;11.18;84.76;98751.91;107513;1253;72580;-38
2023/10/07 08:31:37;;;;;;;8.40;4.30;;;;;;;11.29;84.72;98747.25;107531;1254;72695;-39
2023/10/07 08:36:36;;;;;;;8.80;4.20;;;;;;;11.30;84.42;98733.54;107555;1252;60418;-38
2023/10/07 08:39:05;;;;;;;6.70;4.00;;;;;;;11.38;83.99;98725.20;107569;1254;72625;-38
2023/10/07 08:41:34;;;;;;;7.20;4.40;;;;;;;11.46;83.84;98714.86;107569;1253;66581;-38
2023/10/07 08:44:13;;;;;;;11.30;4.60;;;;;;;11.49;83.56;98718.52;107585;1254;71479;-39
2023/10/07 08:46:48;;;;;;;7.20;4.00;;;;;;;11.53;83.71;98710.46;107465;1254;61668;-38
2023/10/07 08:49:17;;;;;;;11.10;3.80;;;;;;;11.64;83.47;98700.75;107525;1254;60527;-38
2023/10/07 08:51:44;;;;;;;7.60;4.10;;;;;;;11.77;83.03;98701.75;107497;1254;73986;-38
2023/10/07 08:54:17;;;;;;;7.80;4.50;;;;;;;11.85;81.72;98700.77;107340;1262;66307;-38
2023/10/07 08:56:52;;;;;;;8.50;4.30;;;;;;;11.92;81.55;98695.83;107500;1254;72764;-38
2023/10/07 08:59:22;;;;;;;8.80;4.60;;;;;;;12.05;80.65;98687.24;107535;1254;61774;-38
2023/10/07 09:02:00;;;;;;;;;;;;;;;12.17;80.00;98687.12;107559;1258;60533;-38
2023/10/07 09:04:31;;;;;;;9.50;4.20;;;;;;;12.24;79.31;98687.27;107523;1254;73929;-38
2023/10/07 09:07:00;;;;;;;12.90;5.60;;;;;;;12.28;78.61;98685.88;107465;1259;67621;-39
2023/10/07 09:09:49;;;;;;;10.70;5.00;;;;;;;12.39;77.91;98680.84;107542;1254;71910;-38
2023/10/07 09:12:29;;;;;;;12.80;4.90;;;;;;;12.50;76.32;98691.64;107498;1254;60286;-38
2023/10/07 09:14:57;;;;;;;8.30;4.90;;;;;;;12.55;75.81;98677.89;107495;1254;60354;-38
2023/10/07 09:17:29;;;;;;;7.40;4.20;;;;;;;12.60;75.23;98671.29;107553;1254;73905;-38
2023/10/07 09:20:00;;;;;;;10.30;4.80;;;;;;;12.70;74.66;98675.94;107528;1254;67605;-38
2023/10/07 09:22:35;;;;;;;7.60;4.50;;;;;;;12.80;73.37;98669.33;107501;1254;72711;-38
2023/10/07 09:25:21;;;;;;;10.20;4.50;;;;;;;12.84;72.73;98669.95;107532;1258;60436;-39
2023/10/07 09:27:56;;;;;;;10.20;4.70;;;;;;;12.88;72.44;98670.64;107551;1254;60045;-38
2023/10/07 09:33:17;;;;;;;8.80;4.50;;;;;;;13.03;71.91;98662.77;107474;1254;67903;-39
2023/10/07 09:35:47;;;;;;;11.20;4.50;;;;;;;13.04;72.68;98654.98;107514;1254;72640;-38
2023/10/07 09:38:34;;;;;;;7.70;4.10;;;;;;;13.01;72.45;98653.21;107531;1254;60105;-39
2023/10/07 09:41:12;;;;;;;10.70;3.90;;;;;;;13.00;72.23;98654.38;107508;1254;60430;-38
2023/10/07 09:43:42;;;;;;;9.70;4.70;;;;;;;13.09;72.01;98650.23;107505;1254;73845;-39
2023/10/07 09:46:10;;;;;;;6.90;4.30;;;;;;;13.15;71.58;98642.02;107592;1254;67894;-38
2023/10/07 09:49:00;;;;;;;8.50;4.80;;;;;;;13.19;71.22;98640.20;107480;1254;72736;-38
2023/10/07 09:51:29;;;;;;;6.50;4.20;;;;;;;13.24;70.75;98625.48;107506;1254;60642;-38
2023/10/07 09:54:24;;;;;;;12.80;4.60;;;;;;;13.30;70.33;98621.09;107509;1253;60331;-38
2023/10/07 09:56:59;;;;;;;9.40;3.90;;;;;;;13.46;69.55;98604.77;107491;1252;72195;-39
2023/10/07 09:59:35;;;;;;;10.20;4.60;;;;;;;13.59;69.43;98595.21;107492;1254;68044;-39
2023/10/07 10:02:16;;;;;;;8.60;4.50;;;;;;;13.66;68.71;98590.59;107460;1254;72727;-39
2023/10/07 10:04:48;;;;;;;9.40;4.70;;;;;;;13.73;68.34;98585.71;107488;1254;60338;-38
2023/10/07 10:07:53;;;;;;;11.50;4.70;;;;;;;13.79;67.86;98576.34;107504;1254;60556;-38
2023/10/07 10:10:31;;;;;;;8.80;4.60;;;;;;;13.95;67.15;98570.62;107526;1254;73888;-38
2023/10/07 10:18:31;;;;;;;10.80;4.40;;;;;;;14.17;65.18;98541.48;107526;1258;60474;-38
2023/10/07 10:21:04;;;;;;;11.80;4.60;;;;;;;14.29;65.19;98536.86;107518;1253;60293;-38
2023/10/07 10:23:34;;;;;;;;;;;;;;;14.40;64.72;98534.05;107556;1254;73849;-39
2023/10/07 10:26:14;;;;;;;9.90;4.00;;;;;;;14.56;64.63;98523.05;107508;1254;67582;-38
2023/10/07 10:28:52;;;;;;;10.90;4.40;;;;;;;14.69;64.33;98522.36;107488;1254;72661;-38
2023/10/07 10:31:21;;;;;;;13.70;5.70;;;;;;;14.77;63.11;98527.20;107473;1254;60530;-39
2023/10/07 10:33:49;;;;;;;9.50;5.20;;;;;;;14.85;63.22;98524.05;107519;1254;60310;-38
2023/10/07 10:36:21;;;;;;;10.90;4.10;;;;;;;14.91;63.19;98525.08;107580;1254;74323;-38
2023/10/07 10:38:49;;;;;;;7.50;4.40;;;;;;;14.94;62.48;98525.11;107522;1254;67650;-39
2023/10/07 10:41:29;;;;;;;15.80;4.50;;;;;;;14.97;61.96;98519.16;107511;1254;71418;-39
2023/10/07 10:44:06;;;;;;;7.20;4.00;;;;;;;15.00;61.77;98512.73;107515;1254;60437;-39
2023/10/07 10:46:44;;;;;;;10.70;4.20;;;;;;;15.03;62.04;98507.70;107547;1252;60312;-38
2023/10/07 10:49:13;;;;;;;13.70;4.40;;;;;;;15.12;61.80;98494.16;107559;1252;72667;-39
2023/10/07 10:51:50;;;;;;;9.90;4.20;;;;;;;15.19;61.66;98489.39;107683;1255;67572;-39
2023/10/07 10:54:19;;;;;;;9.50;4.40;;;;;;;15.22;61.21;98487.71;107514;1254;70459;-38
2023/10/07 10:56:50;;;;;;;8.20;4.10;;;;;;;15.26;61.20;98487.58;107539;1254;60504;-39
2023/10/07 10:59:18;;;;;;;8.60;3.80;;;;;;;15.30;61.24;98487.77;107519;1253;60315;-38
2023/10/07 11:01:49;;;;;;;8.80;4.10;;;;;;;15.33;61.24;98487.02;107506;1254;73809;-38
2023/10/07 11:04:20;;;;;;;17.00;4.50;;;;;;;15.36;61.33;98483.52;107624;1255;65695;-38
2023/10/07 11:06:51;;;;;;;8.60;4.40;;;;;;;15.38;60.74;98477.89;107556;1254;71380;-38
2023/10/07 11:09:25;;;;;;;9.80;4.20;;;;;;;15.41;60.96;98477.77;107493;1254;60350;-38
2023/10/07 11:11:54;;;;;;;14.40;4.60;;;;;;;15.45;60.94;98483.95;107495;1252;60420;-38
2023/10/07 11:14:23;;;;;;;9.50;4.00;;;;;;;15.50;60.66;98482.58;107435;1255;74171;-38
2023/10/07 11:16:51;;;;;;;10.40;4.50;;;;;;;15.62;59.99;98476.30;107527;1254;67640;-38
2023/10/07 11:19:19;;;;;;;7.80;3.90;;;;;;;15.67;60.19;98471.93;107577;1259;72860;-38
2023/10/07 11:21:49;;;;;;;11.60;4.10;;;;;;;15.69;60.28;98473.22;107494;1252;60415;-39
2023/10/07 11:24:24;;;;;;;10.40;4.10;;;;;;;15.70;60.23;98485.63;107614;1254;60561;-38
2023/10/07 11:26:53;;;;;;;12.50;4.30;;;;;;;15.70;60.70;98482.03;107502;1254;72563;-38
2023/10/07 11:29:21;;;;;;;9.60;3.60;;;;;;;15.68;60.62;98485.27;107538;1254;66324;-39
2023/10/07 11:31:58;;;;;;;10.40;3.70;;;;;;;15.67;60.91;98484.51;107508;1254;72768;-38
2023/10/07 11:34:36;;;;;;;8.20;4.40;;;;;;;15.65;60.67;98485.07;107534;1255;60418;-38
2023/10/07 11:37:13;;;;;;;10.30;3.40;;;;;;;15.65;60.99;98481.95;107498;1254;60374;-38
2023/10/07 11:39:44;;;;;;;8.50;3.60;;;;;;;15.70;61.29;98492.18;107521;1257;73864;-38
2023/10/07 11:42:13;;;;;;;9.60;3.60;;;;;;;15.73;62.28;98492.38;107519;1259;67621;-38
2023/10/07 11:44:42;;;;;;;9.70;3.90;;;;;;;15.69;62.99;98493.22;107503;1254;72667;-38
2023/10/07 11:47:11;;;;;;;8.30;4.00;;;;;;;15.64;63.60;98500.70;107520;1254;60498;-38
2023/10/07 11:49:38;;;;;;;5.70;2.80;;;;;;;15.56;64.84;98500.83;107530;1252;60441;-38
2023/10/07 11:52:06;;;;;;;7.00;3.00;;;;;;;15.49;66.02;98508.40;107487;1254;73840;-38
2023/10/07 11:54:34;;;;;;;8.70;3.20;;;;;;;15.44;67.12;98511.13;107523;1254;66304;-38
2023/10/07 11:57:04;;;;;;;6.00;2.80;;;;;;;15.35;68.12;98516.01;107476;1260;72417;-43
2023/10/07 11:59:41;;;;;;;5.60;2.90;;;;;;;15.21;69.26;98516.59;107595;1254;60559;-38
2023/10/07 12:02:12;;;;;;;6.00;2.90;;;;;;;15.08;70.18;98511.06;107492;1254;60677;-38
2023/10/07 12:04:41;;;;;;;8.10;3.10;;;;;;;15.05;70.57;98507.20;107615;1255;73906;-38
2023/10/07 12:07:12;;;;;;;7.90;3.30;;;;;;;15.02;71.16;98504.29;107574;1254;65734;-38
2023/10/07 12:09:41;;;;;;;9.80;3.30;;;;;;;14.94;71.56;98498.21;107495;1258;72660;-39
2023/10/07 12:12:11;;;;;;;5.90;3.00;;;;;;;14.88;71.81;98492.98;107499;1254;60325;-38
2023/10/07 12:14:39;;;;;;;5.30;2.80;;;;;;;14.84;72.56;98482.98;107499;1255;60438;-38
2023/10/07 12:17:07;;;;;;;7.90;2.90;;;;;;;14.87;72.67;98477.56;107549;1255;72560;-38
2023/10/07 12:19:36;;;;;;;5.60;3.50;;;;;;;14.89;72.88;98479.10;107524;1257;67593;-38
2023/10/07 12:22:05;;;;;;;5.50;3.30;;;;;;;14.88;72.94;98464.77;107510;1254;72686;-38
2023/10/07 12:24:33;;;;;;;7.60;3.00;;;;;;;14.84;72.80;98464.82;107525;1254;60451;-38
2023/10/07 12:27:02;;;;;;;5.30;2.50;;;;;;;14.88;72.64;98475.30;107622;1257;60386;-38
2023/10/07 12:29:29;;;;;;;10.30;3.40;;;;;;;14.94;72.10;98482.40;107555;1254;72572;-38
2023/10/07 12:31:58;;;;;;;12.00;3.30;;;;;;;14.96;71.59;98492.27;107483;1257;67620;-38
2023/10/07 12:34:26;;;;;;;5.10;3.00;;;;;;;14.95;71.16;98495.80;107493;1254;72645;-38
2023/10/07 12:36:54;;;;;;;5.70;3.10;;;;;;;14.95;71.00;98492.75;107366;1257;60449;-38
2023/10/07 12:39:22;;;;;;;13.30;3.60;;;;;;;15.02;70.74;98494.14;107406;1258;60332;-38
2023/10/07 12:41:50;;;;;;;8.20;2.80;;;;;;;15.07;70.45;98497.59;107421;1254;73831;-38
2023/10/07 12:44:17;;;;;;;6.10;2.80;;;;;;;15.10;70.21;98495.14;107425;1259;67595;-39
2023/10/07 12:46:45;;;;;;;14.30;4.00;;;;;;;15.12;69.84;98477.63;107367;1259;72736;-39
2023/10/07 12:49:14;;;;;;;7.60;2.70;;;;;;;15.25;69.58;98480.65;107312;1253;61680;-39